Date,TemperatureHighF,TemperatureAvgF,TemperatureLowF,DewpointHighF,DewpointAvgF,DewpointLowF,HumidityHigh,HumidityAvg,HumidityLow,PressureMaxIn,PressureMinIn,WindSpeedMaxMPH,WindSpeedAvgMPH,GustSpeedMaxMPH,PrecipitationSumIn
2013-10-1,70,60,51,52,49,44,92,68,48,30.00,29.91,4,0,6,0.00
2013-10-2,73,62,53,53,48,42,85,63,43,30.00,29.92,6,1,11,0.00
2013-10-3,70,62,52,44,36,26,72,42,19,30.06,29.95,10,3,16,0.00
2013-10-4,75,68,58,31,28,26,34,23,16,30.09,29.97,6,1,17,0.00
2013-10-5,79,68,57,33,29,25,40,24,16,30.20,30.09,3,0,8,0.00
2013-10-6,82,68,57,39,34,30,40,29,18,30.11,29.98,3,0,5,0.00
2013-10-7,80,66,56,44,33,23,60,31,12,29.98,29.85,4,1,8,0.00
2013-10-8,72,61,52,47,44,40,81,58,32,29.88,29.70,5,1,7,0.00
2013-10-9,66,57,49,48,45,41,92,67,43,29.75,29.62,4,0,8,0.00
2013-10-10,70,58,50,49,45,38,90,62,39,29.99,29.75,3,0,5,0.00
2013-10-11,67,55,47,52,48,42,95,79,44,30.08,29.97,5,1,7,0.00
2013-10-12,68,55,47,51,47,44,93,75,47,29.99,29.89,2,0,4,0.00
2013-10-13,70,58,48,50,44,39,94,63,33,30.06,29.90,3,1,6,0.00
2013-10-14,73,61,51,41,39,35,69,45,26,30.12,30.00,4,1,8,0.00
2013-10-15,75,63,51,38,35,31,59,37,20,30.04,29.95,5,1,10,0.00
2013-10-16,78,65,55,37,34,30,48,32,21,30.08,29.99,3,0,4,0.00
2013-10-17,78,65,55,39,34,30,47,33,18,30.07,29.95,2,0,6,0.00
2013-10-18,78,66,54,44,37,30,60,36,21,30.03,29.97,2,0,4,0.00
2013-10-19,79,66,54,43,41,38,59,43,26,30.06,29.98,4,0,5,0.00
2013-10-20,80,65,53,47,42,39,66,47,23,30.00,29.89,6,1,7,0.00
2013-10-21,75,60,48,53,48,43,92,66,35,29.98,29.89,3,0,3,0.00
2013-10-22,77,59,46,53,48,44,95,71,34,30.00,29.90,3,1,4,0.00
2013-10-23,73,56,46,54,49,45,96,79,50,29.96,29.87,3,1,5,0.00
2013-10-24,59,52,48,50,48,46,96,85,72,30.09,29.95,3,0,5,0.00
2013-10-25,71,56,46,52,48,45,97,76,42,30.16,30.08,4,0,6,0.00
2013-10-26,77,62,51,50,46,42,82,60,30,30.13,30.00,2,0,5,0.00
2013-10-27,60,53,48,51,47,40,92,79,52,30.00,29.64,12,2,15,0.00
2013-10-28,59,52,45,48,46,42,93,79,60,29.84,29.66,5,1,8,0.00
2013-10-29,60,54,46,49,47,44,91,78,60,30.05,29.84,3,0,5,0.00
2013-10-30,64,53,45,50,46,42,95,78,53,30.15,30.05,5,1,6,0.00
2013-10-31,70,56,45,47,44,40,84,65,40,30.17,30.07,2,0,4,0.00